N957JS KDAL-KTEX
Flight info
| Callsign | N957JS |
|---|---|
| Flight time | 1h 56m |
| Altitude | 43000 |
| Route | KKITY5 HULZE ESPAN CEZ HAVWU ETL |
| Aircraft | C750/M-SBDE3FGHRWXY/S |
Departure
| Time | 2026-04-29 23:53 |
|---|---|
| Airport | Dallas Love Field (KDAL) |
Arrival
| Time | 2026-04-30 01:50 |
|---|---|
| Airport | Telluride Regional Airport (KTEX) |
| Time | Latitude | Longitude | Altitude | Speed | Heading |
|---|---|---|---|---|---|
| 2026-04-29 23:22 | 32.84296 | -96.85665 | 480 ft | 0 kts | 313° |
| 2026-04-29 23:39 | 32.84300 | -96.85670 | 478 ft | 2 kts | 313° |
| 2026-04-29 23:39 | 32.84313 | -96.85672 | 477 ft | 2 kts | 22° |
| 2026-04-29 23:40 | 32.84316 | -96.85666 | 479 ft | 0 kts | 60° |
| 2026-04-29 23:40 | 32.84319 | -96.85656 | 480 ft | 3 kts | 75° |
| 2026-04-29 23:40 | 32.84343 | -96.85627 | 475 ft | 6 kts | 4° |
| 2026-04-29 23:40 | 32.84387 | -96.85665 | 480 ft | 10 kts | 315° |
| 2026-04-29 23:41 | 32.84436 | -96.85722 | 480 ft | 10 kts | 316° |
| 2026-04-29 23:41 | 32.84487 | -96.85780 | 480 ft | 10 kts | 315° |
| 2026-04-29 23:41 | 32.84535 | -96.85836 | 481 ft | 10 kts | 315° |
| 2026-04-29 23:41 | 32.84583 | -96.85892 | 481 ft | 10 kts | 316° |
| 2026-04-29 23:42 | 32.84633 | -96.85950 | 479 ft | 10 kts | 316° |
| 2026-04-29 23:42 | 32.84682 | -96.86001 | 477 ft | 8 kts | 340° |
| 2026-04-29 23:42 | 32.84721 | -96.85968 | 481 ft | 9 kts | 46° |
| 2026-04-29 23:42 | 32.84776 | -96.85902 | 479 ft | 14 kts | 45° |
| 2026-04-29 23:43 | 32.84837 | -96.85822 | 480 ft | 11 kts | 44° |
| 2026-04-29 23:43 | 32.84845 | -96.85755 | 477 ft | 9 kts | 132° |
| 2026-04-29 23:43 | 32.84797 | -96.85699 | 474 ft | 9 kts | 136° |
| 2026-04-29 23:43 | 32.84749 | -96.85643 | 480 ft | 11 kts | 135° |
| 2026-04-29 23:44 | 32.84690 | -96.85574 | 480 ft | 11 kts | 138° |
| 2026-04-29 23:44 | 32.84640 | -96.85507 | 478 ft | 10 kts | 109° |
| 2026-04-29 23:44 | 32.84675 | -96.85459 | 478 ft | 8 kts | 11° |
| 2026-04-29 23:44 | 32.84736 | -96.85452 | 477 ft | 9 kts | 5° |
| 2026-04-29 23:45 | 32.84801 | -96.85444 | 480 ft | 10 kts | 7° |
| 2026-04-29 23:45 | 32.84875 | -96.85434 | 480 ft | 10 kts | 4° |
| 2026-04-29 23:45 | 32.84916 | -96.85431 | 480 ft | 4 kts | 4° |
| 2026-04-29 23:45 | 32.84951 | -96.85426 | 476 ft | 8 kts | 7° |
| 2026-04-29 23:46 | 32.85035 | -96.85416 | 480 ft | 14 kts | 5° |
| 2026-04-29 23:46 | 32.85138 | -96.85405 | 475 ft | 13 kts | 5° |
| 2026-04-29 23:46 | 32.85180 | -96.85349 | 476 ft | 9 kts | 116° |
| 2026-04-29 23:46 | 32.85132 | -96.85289 | 480 ft | 13 kts | 138° |
| 2026-04-29 23:47 | 32.85049 | -96.85201 | 480 ft | 19 kts | 138° |
| 2026-04-29 23:47 | 32.84981 | -96.85111 | 475 ft | 12 kts | 124° |
| 2026-04-29 23:47 | 32.84922 | -96.85037 | 480 ft | 13 kts | 135° |
| 2026-04-29 23:47 | 32.84860 | -96.84964 | 480 ft | 12 kts | 135° |
| 2026-04-29 23:48 | 32.84800 | -96.84895 | 480 ft | 12 kts | 136° |
| 2026-04-29 23:48 | 32.84763 | -96.84829 | 478 ft | 8 kts | 82° |
| 2026-04-29 23:48 | 32.84784 | -96.84775 | 481 ft | 7 kts | 99° |
| 2026-04-29 23:48 | 32.84742 | -96.84721 | 481 ft | 11 kts | 135° |
| 2026-04-29 23:49 | 32.84674 | -96.84642 | 481 ft | 16 kts | 135° |
| 2026-04-29 23:49 | 32.84587 | -96.84540 | 481 ft | 18 kts | 135° |
| 2026-04-29 23:49 | 32.84503 | -96.84443 | 482 ft | 16 kts | 135° |
| 2026-04-29 23:49 | 32.84426 | -96.84355 | 482 ft | 15 kts | 136° |
| 2026-04-29 23:50 | 32.84355 | -96.84273 | 482 ft | 13 kts | 136° |
| 2026-04-29 23:50 | 32.84292 | -96.84199 | 482 ft | 12 kts | 135° |
| 2026-04-29 23:50 | 32.84185 | -96.84075 | 481 ft | 10 kts | 135° |
| 2026-04-29 23:51 | 32.84150 | -96.84029 | 479 ft | 5 kts | 115° |
| 2026-04-29 23:51 | 32.84151 | -96.84004 | 481 ft | 2 kts | 69° |
| 2026-04-29 23:51 | 32.84155 | -96.83996 | 483 ft | 1 kts | 57° |
| 2026-04-29 23:51 | 32.84156 | -96.83994 | 483 ft | 0 kts | 55° |
| 2026-04-29 23:52 | 32.84160 | -96.83989 | 480 ft | 0 kts | 50° |
| 2026-04-29 23:52 | 32.84167 | -96.83979 | 482 ft | 4 kts | 47° |
| 2026-04-29 23:52 | 32.84214 | -96.83945 | 487 ft | 12 kts | 0° |
| 2026-04-29 23:53 | 32.84306 | -96.84033 | 487 ft | 26 kts | 317° |
| 2026-04-29 23:53 | 32.84553 | -96.84318 | 487 ft | 94 kts | 316° |
| 2026-04-29 23:53 | 32.85164 | -96.85022 | 844 ft | 126 kts | 319° |
| 2026-04-29 23:53 | 32.85757 | -96.85713 | 1699 ft | 128 kts | 321° |
| 2026-04-29 23:54 | 32.86402 | -96.86503 | 2358 ft | 133 kts | 319° |
| 2026-04-29 23:54 | 32.87204 | -96.87177 | 2806 ft | 150 kts | 348° |
| 2026-04-29 23:54 | 32.88252 | -96.87177 | 3380 ft | 157 kts | 12° |
| 2026-04-29 23:54 | 32.89253 | -96.86581 | 3997 ft | 166 kts | 33° |
| 2026-04-29 23:55 | 32.90252 | -96.85817 | 4652 ft | 177 kts | 31° |
| 2026-04-29 23:55 | 32.91352 | -96.84956 | 5063 ft | 202 kts | 31° |
| 2026-04-29 23:55 | 32.92607 | -96.83976 | 5518 ft | 228 kts | 31° |
| 2026-04-29 23:55 | 32.93956 | -96.82833 | 5961 ft | 253 kts | 41° |
| 2026-04-29 23:56 | 32.94848 | -96.80997 | 5964 ft | 288 kts | 76° |
| 2026-04-29 23:56 | 32.94761 | -96.78619 | 5964 ft | 288 kts | 111° |
| 2026-04-29 23:56 | 32.93622 | -96.76735 | 5966 ft | 280 kts | 146° |
| 2026-04-29 23:56 | 32.91839 | -96.75970 | 6148 ft | 276 kts | 180° |
| 2026-04-29 23:57 | 32.89982 | -96.76000 | 7322 ft | 265 kts | 185° |
| 2026-04-29 23:57 | 32.88107 | -96.75930 | 8234 ft | 274 kts | 179° |
| 2026-04-29 23:57 | 32.86231 | -96.75495 | 9201 ft | 284 kts | 169° |
| 2026-04-29 23:57 | 32.84323 | -96.74683 | 10088 ft | 291 kts | 164° |
| 2026-04-29 23:58 | 32.82387 | -96.73832 | 10467 ft | 312 kts | 166° |
| 2026-04-29 23:58 | 32.80233 | -96.73030 | 10608 ft | 338 kts | 168° |
| 2026-04-29 23:58 | 32.77898 | -96.72188 | 10872 ft | 358 kts | 167° |
| 2026-04-29 23:58 | 32.75530 | -96.71262 | 11640 ft | 360 kts | 167° |
| 2026-04-29 23:59 | 32.73121 | -96.70449 | 12178 ft | 361 kts | 176° |
| 2026-04-29 23:59 | 32.70639 | -96.70450 | 12863 ft | 354 kts | 192° |
| 2026-04-29 23:59 | 32.68280 | -96.71217 | 13503 ft | 351 kts | 207° |
| 2026-04-29 23:59 | 32.66107 | -96.72533 | 14100 ft | 350 kts | 217° |
| 2026-04-30 00:00 | 32.64268 | -96.74396 | 14711 ft | 347 kts | 231° |
| 2026-04-30 00:00 | 32.62865 | -96.76663 | 15316 ft | 345 kts | 243° |
| 2026-04-30 00:00 | 32.61932 | -96.79265 | 15952 ft | 344 kts | 255° |
| 2026-04-30 00:00 | 32.61529 | -96.82054 | 16618 ft | 344 kts | 267° |
| 2026-04-30 00:01 | 32.61529 | -96.84887 | 17299 ft | 345 kts | 272° |
| 2026-04-30 00:01 | 32.61542 | -96.87745 | 17997 ft | 348 kts | 271° |
| 2026-04-30 00:01 | 32.61544 | -96.90624 | 18627 ft | 351 kts | 271° |
| 2026-04-30 00:01 | 32.61556 | -96.93527 | 19290 ft | 352 kts | 271° |
| 2026-04-30 00:02 | 32.61570 | -96.96436 | 19967 ft | 354 kts | 271° |
| 2026-04-30 00:02 | 32.61580 | -96.99357 | 20680 ft | 356 kts | 271° |
| 2026-04-30 00:02 | 32.61588 | -97.02260 | 21332 ft | 358 kts | 270° |
| 2026-04-30 00:02 | 32.61596 | -97.05220 | 22023 ft | 360 kts | 270° |
| 2026-04-30 00:03 | 32.61604 | -97.08197 | 22700 ft | 362 kts | 270° |
| 2026-04-30 00:03 | 32.61611 | -97.11196 | 23376 ft | 365 kts | 270° |
| 2026-04-30 00:03 | 32.61617 | -97.14205 | 23968 ft | 367 kts | 270° |
| 2026-04-30 00:03 | 32.61623 | -97.17244 | 24555 ft | 368 kts | 270° |
| 2026-04-30 00:04 | 32.61628 | -97.20280 | 25143 ft | 370 kts | 270° |
| 2026-04-30 00:04 | 32.61633 | -97.23301 | 25755 ft | 371 kts | 270° |
| 2026-04-30 00:04 | 32.61800 | -97.26364 | 26306 ft | 374 kts | 276° |
| 2026-04-30 00:04 | 32.62252 | -97.29407 | 26879 ft | 377 kts | 281° |
| 2026-04-30 00:05 | 32.62982 | -97.32401 | 27453 ft | 380 kts | 286° |
| 2026-04-30 00:05 | 32.63995 | -97.35321 | 28023 ft | 384 kts | 291° |
| 2026-04-30 00:05 | 32.65285 | -97.38120 | 28603 ft | 389 kts | 297° |
| 2026-04-30 00:05 | 32.66850 | -97.40769 | 29155 ft | 396 kts | 302° |
| 2026-04-30 00:06 | 32.68598 | -97.43314 | 29607 ft | 401 kts | 303° |
| 2026-04-30 00:06 | 32.70352 | -97.45899 | 30114 ft | 403 kts | 302° |
| 2026-04-30 00:06 | 32.72088 | -97.48468 | 30565 ft | 405 kts | 302° |
| 2026-04-30 00:06 | 32.73859 | -97.51071 | 30981 ft | 406 kts | 303° |
| 2026-04-30 00:07 | 32.75634 | -97.53667 | 31658 ft | 401 kts | 303° |
| 2026-04-30 00:07 | 32.77380 | -97.56233 | 32333 ft | 397 kts | 303° |
| 2026-04-30 00:07 | 32.79097 | -97.58773 | 33016 ft | 393 kts | 302° |
| 2026-04-30 00:07 | 32.80801 | -97.61288 | 33721 ft | 389 kts | 302° |
| 2026-04-30 00:08 | 32.82493 | -97.63782 | 34376 ft | 385 kts | 303° |
| 2026-04-30 00:08 | 32.84162 | -97.66245 | 34974 ft | 382 kts | 303° |
| 2026-04-30 00:08 | 32.85824 | -97.68702 | 35583 ft | 379 kts | 303° |
| 2026-04-30 00:08 | 32.87411 | -97.71116 | 36204 ft | 373 kts | 301° |
| 2026-04-30 00:09 | 32.88788 | -97.73692 | 36832 ft | 367 kts | 296° |
| 2026-04-30 00:09 | 32.89930 | -97.76384 | 37470 ft | 362 kts | 291° |
| 2026-04-30 00:09 | 32.90857 | -97.79150 | 38078 ft | 359 kts | 289° |
| 2026-04-30 00:09 | 32.91761 | -97.81913 | 38706 ft | 356 kts | 290° |
| 2026-04-30 00:10 | 32.92669 | -97.84644 | 39132 ft | 355 kts | 289° |
| 2026-04-30 00:10 | 32.93570 | -97.87382 | 39529 ft | 356 kts | 289° |
| 2026-04-30 00:10 | 32.94465 | -97.90132 | 39898 ft | 357 kts | 289° |
| 2026-04-30 00:10 | 32.95367 | -97.92895 | 40251 ft | 358 kts | 289° |
| 2026-04-30 00:11 | 32.96258 | -97.95613 | 40619 ft | 359 kts | 289° |
| 2026-04-30 00:11 | 32.97163 | -97.98383 | 40987 ft | 359 kts | 288° |
| 2026-04-30 00:11 | 32.98067 | -98.01153 | 41371 ft | 359 kts | 288° |
| 2026-04-30 00:11 | 32.98970 | -98.03926 | 41700 ft | 360 kts | 288° |
| 2026-04-30 00:12 | 32.99877 | -98.06709 | 42033 ft | 361 kts | 288° |
| 2026-04-30 00:12 | 33.00784 | -98.09494 | 42365 ft | 361 kts | 288° |
| 2026-04-30 00:12 | 33.01693 | -98.12291 | 42678 ft | 362 kts | 288° |
| 2026-04-30 00:12 | 33.02429 | -98.14557 | 42929 ft | 363 kts | 288° |
| 2026-04-30 00:13 | 33.03333 | -98.17343 | 42997 ft | 369 kts | 288° |
| 2026-04-30 00:13 | 33.05218 | -98.23162 | 43000 ft | 383 kts | 288° |
| 2026-04-30 00:14 | 33.07179 | -98.29174 | 43003 ft | 396 kts | 288° |
| 2026-04-30 00:14 | 33.09202 | -98.35394 | 43022 ft | 408 kts | 288° |
| 2026-04-30 00:15 | 33.11267 | -98.41756 | 43012 ft | 419 kts | 288° |
| 2026-04-30 00:15 | 33.13385 | -98.48291 | 43029 ft | 424 kts | 288° |
| 2026-04-30 00:16 | 33.15505 | -98.54848 | 43035 ft | 424 kts | 288° |
| 2026-04-30 00:16 | 33.17263 | -98.60298 | 43033 ft | 424 kts | 288° |
| 2026-04-30 00:17 | 33.19379 | -98.66867 | 43025 ft | 424 kts | 288° |
| 2026-04-30 00:17 | 33.21830 | -98.74496 | 43020 ft | 422 kts | 288° |
| 2026-04-30 00:18 | 33.23572 | -98.79930 | 43014 ft | 422 kts | 288° |
| 2026-04-30 00:18 | 33.25667 | -98.86478 | 43012 ft | 422 kts | 288° |
| 2026-04-30 00:19 | 33.27755 | -98.93017 | 43009 ft | 422 kts | 288° |
| 2026-04-30 00:19 | 33.29844 | -98.99573 | 43006 ft | 422 kts | 288° |
| 2026-04-30 00:20 | 33.31914 | -99.06083 | 43006 ft | 422 kts | 287° |
| 2026-04-30 00:20 | 33.33995 | -99.12643 | 43000 ft | 422 kts | 287° |
| 2026-04-30 00:21 | 33.36079 | -99.19228 | 43002 ft | 425 kts | 287° |
| 2026-04-30 00:21 | 33.38170 | -99.25841 | 42997 ft | 425 kts | 287° |
| 2026-04-30 00:22 | 33.40240 | -99.32411 | 42995 ft | 424 kts | 287° |
| 2026-04-30 00:22 | 33.42321 | -99.39024 | 42993 ft | 424 kts | 287° |
| 2026-04-30 00:23 | 33.44396 | -99.45635 | 42994 ft | 424 kts | 287° |
| 2026-04-30 00:23 | 33.46460 | -99.52271 | 42992 ft | 424 kts | 286° |
| 2026-04-30 00:24 | 33.48323 | -99.58977 | 42997 ft | 424 kts | 285° |
| 2026-04-30 00:24 | 33.50186 | -99.65632 | 43002 ft | 424 kts | 285° |
| 2026-04-30 00:25 | 33.52048 | -99.72341 | 43004 ft | 424 kts | 285° |
| 2026-04-30 00:25 | 33.53911 | -99.79051 | 43005 ft | 424 kts | 285° |
| 2026-04-30 00:26 | 33.55768 | -99.85765 | 42997 ft | 425 kts | 285° |
| 2026-04-30 00:26 | 33.57614 | -99.92443 | 43002 ft | 423 kts | 285° |
| 2026-04-30 00:27 | 33.59462 | -99.99158 | 42999 ft | 424 kts | 285° |
| 2026-04-30 00:27 | 33.61307 | -100.05870 | 42993 ft | 424 kts | 285° |
| 2026-04-30 00:28 | 33.63149 | -100.12590 | 42995 ft | 424 kts | 285° |
| 2026-04-30 00:28 | 33.64975 | -100.19265 | 42998 ft | 424 kts | 285° |
| 2026-04-30 00:29 | 33.67342 | -100.25758 | 42998 ft | 426 kts | 294° |
| 2026-04-30 00:29 | 33.70110 | -100.32071 | 43006 ft | 428 kts | 293° |
| 2026-04-30 00:30 | 33.72868 | -100.38389 | 43006 ft | 427 kts | 293° |
| 2026-04-30 00:30 | 33.75611 | -100.44663 | 42999 ft | 427 kts | 293° |
| 2026-04-30 00:31 | 33.78357 | -100.50974 | 43007 ft | 424 kts | 293° |
| 2026-04-30 00:31 | 33.81091 | -100.57255 | 43014 ft | 425 kts | 293° |
| 2026-04-30 00:32 | 33.83806 | -100.63513 | 43005 ft | 425 kts | 292° |
| 2026-04-30 00:32 | 33.86542 | -100.69824 | 43015 ft | 425 kts | 292° |
| 2026-04-30 00:33 | 33.89268 | -100.76127 | 43000 ft | 425 kts | 292° |
| 2026-04-30 00:33 | 33.91994 | -100.82441 | 42997 ft | 425 kts | 292° |
| 2026-04-30 00:34 | 33.94717 | -100.88758 | 43004 ft | 425 kts | 292° |
| 2026-04-30 00:34 | 33.97416 | -100.95032 | 43013 ft | 425 kts | 292° |
| 2026-04-30 00:35 | 34.00137 | -101.01370 | 43016 ft | 426 kts | 292° |
| 2026-04-30 00:35 | 34.02857 | -101.07714 | 43017 ft | 426 kts | 292° |
| 2026-04-30 00:36 | 34.05573 | -101.14062 | 43017 ft | 426 kts | 292° |
| 2026-04-30 00:36 | 34.08287 | -101.20418 | 43017 ft | 426 kts | 292° |
| 2026-04-30 00:37 | 34.10977 | -101.26729 | 43018 ft | 426 kts | 292° |
| 2026-04-30 00:37 | 34.13683 | -101.33086 | 43017 ft | 425 kts | 292° |
| 2026-04-30 00:38 | 34.16379 | -101.39438 | 43034 ft | 425 kts | 292° |
| 2026-04-30 00:38 | 34.19074 | -101.45794 | 43045 ft | 425 kts | 292° |
| 2026-04-30 00:39 | 34.21753 | -101.52126 | 43053 ft | 426 kts | 292° |
| 2026-04-30 00:39 | 34.24450 | -101.58512 | 43067 ft | 426 kts | 292° |
| 2026-04-30 00:40 | 34.27143 | -101.64899 | 43072 ft | 426 kts | 292° |
| 2026-04-30 00:40 | 34.29829 | -101.71282 | 43054 ft | 425 kts | 292° |
| 2026-04-30 00:41 | 34.32507 | -101.77660 | 43043 ft | 425 kts | 292° |
| 2026-04-30 00:41 | 34.35165 | -101.84000 | 43028 ft | 425 kts | 292° |
| 2026-04-30 00:42 | 34.37837 | -101.90387 | 43011 ft | 425 kts | 292° |
| 2026-04-30 00:42 | 34.40505 | -101.96774 | 43037 ft | 425 kts | 292° |
| 2026-04-30 00:43 | 34.43180 | -102.03194 | 42984 ft | 427 kts | 292° |
| 2026-04-30 00:43 | 34.45841 | -102.09591 | 42980 ft | 428 kts | 291° |
| 2026-04-30 00:44 | 34.48517 | -102.16033 | 42978 ft | 428 kts | 291° |
| 2026-04-30 00:44 | 34.51186 | -102.22473 | 42976 ft | 428 kts | 291° |
| 2026-04-30 00:45 | 34.53855 | -102.28923 | 42991 ft | 428 kts | 291° |
| 2026-04-30 00:45 | 34.56519 | -102.35376 | 43000 ft | 428 kts | 291° |
| 2026-04-30 00:46 | 34.59160 | -102.41786 | 42987 ft | 428 kts | 291° |
| 2026-04-30 00:46 | 34.61824 | -102.48264 | 42998 ft | 430 kts | 291° |
| 2026-04-30 00:47 | 34.64488 | -102.54750 | 42995 ft | 429 kts | 291° |
| 2026-04-30 00:47 | 34.67146 | -102.61241 | 42987 ft | 429 kts | 291° |
| 2026-04-30 00:48 | 34.69783 | -102.67687 | 42972 ft | 429 kts | 291° |
| 2026-04-30 00:48 | 34.72437 | -102.74190 | 42961 ft | 429 kts | 291° |
| 2026-04-30 00:49 | 34.75088 | -102.80699 | 42954 ft | 430 kts | 291° |
| 2026-04-30 00:49 | 34.77740 | -102.87220 | 42954 ft | 430 kts | 291° |
| 2026-04-30 00:50 | 34.80369 | -102.93701 | 42944 ft | 430 kts | 291° |
| 2026-04-30 00:50 | 34.83022 | -103.00253 | 42946 ft | 432 kts | 291° |
| 2026-04-30 00:51 | 34.85676 | -103.06816 | 42930 ft | 432 kts | 291° |
| 2026-04-30 00:51 | 34.88326 | -103.13388 | 42944 ft | 432 kts | 291° |
| 2026-04-30 00:52 | 34.90944 | -103.19888 | 42930 ft | 430 kts | 290° |
| 2026-04-30 00:52 | 34.93575 | -103.26440 | 42913 ft | 431 kts | 290° |
| 2026-04-30 00:53 | 34.96205 | -103.32995 | 42916 ft | 431 kts | 290° |
| 2026-04-30 00:53 | 34.98829 | -103.39555 | 42894 ft | 430 kts | 290° |
| 2026-04-30 00:54 | 35.01438 | -103.46086 | 42902 ft | 433 kts | 290° |
| 2026-04-30 00:54 | 35.04073 | -103.52694 | 42891 ft | 431 kts | 290° |
| 2026-04-30 00:55 | 35.06689 | -103.59270 | 42888 ft | 431 kts | 290° |
| 2026-04-30 00:55 | 35.10608 | -103.69147 | 42880 ft | 431 kts | 290° |
| 2026-04-30 00:56 | 35.13198 | -103.75692 | 42882 ft | 431 kts | 290° |
| 2026-04-30 00:56 | 35.15803 | -103.82285 | 42952 ft | 431 kts | 290° |
| 2026-04-30 00:57 | 35.18401 | -103.88874 | 42923 ft | 428 kts | 290° |
| 2026-04-30 00:57 | 35.20979 | -103.95429 | 42887 ft | 428 kts | 289° |
| 2026-04-30 00:58 | 35.23541 | -104.01951 | 42865 ft | 428 kts | 289° |
| 2026-04-30 00:58 | 35.26116 | -104.08522 | 42848 ft | 428 kts | 289° |
| 2026-04-30 00:59 | 35.28686 | -104.15093 | 42841 ft | 428 kts | 289° |
| 2026-04-30 00:59 | 35.31252 | -104.21666 | 42882 ft | 428 kts | 289° |
| 2026-04-30 01:00 | 35.33778 | -104.28141 | 42840 ft | 416 kts | 289° |
| 2026-04-30 01:00 | 35.36248 | -104.34513 | 42843 ft | 417 kts | 289° |
| 2026-04-30 01:01 | 35.38750 | -104.40953 | 42876 ft | 418 kts | 289° |
| 2026-04-30 01:01 | 35.41202 | -104.47281 | 42844 ft | 409 kts | 289° |
| 2026-04-30 01:02 | 35.43644 | -104.53614 | 42840 ft | 412 kts | 289° |
| 2026-04-30 01:02 | 35.46082 | -104.59922 | 42841 ft | 412 kts | 289° |
| 2026-04-30 01:03 | 35.48527 | -104.66280 | 42827 ft | 412 kts | 289° |
| 2026-04-30 01:03 | 35.50967 | -104.72624 | 42841 ft | 410 kts | 289° |
| 2026-04-30 01:04 | 35.53407 | -104.78997 | 42843 ft | 413 kts | 289° |
| 2026-04-30 01:04 | 35.55831 | -104.85324 | 42836 ft | 412 kts | 289° |
| 2026-04-30 01:05 | 35.58258 | -104.91682 | 42846 ft | 409 kts | 289° |
| 2026-04-30 01:05 | 35.60671 | -104.98015 | 42835 ft | 413 kts | 289° |
| 2026-04-30 01:06 | 35.61895 | -105.01234 | 43036 ft | 419 kts | 289° |
| 2026-04-30 01:06 | 35.63135 | -105.04494 | 43056 ft | 422 kts | 289° |
| 2026-04-30 01:06 | 35.65625 | -105.11046 | 43061 ft | 423 kts | 289° |
| 2026-04-30 01:07 | 35.68093 | -105.17564 | 43065 ft | 423 kts | 289° |
| 2026-04-30 01:07 | 35.70578 | -105.24132 | 43061 ft | 423 kts | 289° |
| 2026-04-30 01:08 | 35.73058 | -105.30708 | 43010 ft | 425 kts | 290° |
| 2026-04-30 01:08 | 35.75570 | -105.37384 | 43020 ft | 434 kts | 290° |
| 2026-04-30 01:09 | 35.78097 | -105.44096 | 42944 ft | 435 kts | 290° |
| 2026-04-30 01:09 | 35.80633 | -105.50866 | 42932 ft | 435 kts | 290° |
| 2026-04-30 01:10 | 35.83166 | -105.57643 | 42941 ft | 436 kts | 290° |
| 2026-04-30 01:10 | 35.85705 | -105.64428 | 42951 ft | 435 kts | 289° |
| 2026-04-30 01:11 | 35.88192 | -105.71123 | 42909 ft | 432 kts | 289° |
| 2026-04-30 01:11 | 35.90701 | -105.77862 | 42929 ft | 433 kts | 289° |
| 2026-04-30 01:12 | 35.93202 | -105.84608 | 42973 ft | 432 kts | 289° |
| 2026-04-30 01:12 | 35.95686 | -105.91312 | 42915 ft | 427 kts | 289° |
| 2026-04-30 01:13 | 35.98136 | -105.97953 | 42970 ft | 428 kts | 289° |
| 2026-04-30 01:13 | 36.00610 | -106.04663 | 42984 ft | 431 kts | 289° |
| 2026-04-30 01:14 | 36.03087 | -106.11395 | 42993 ft | 430 kts | 289° |
| 2026-04-30 01:14 | 36.05554 | -106.18120 | 43002 ft | 430 kts | 289° |
| 2026-04-30 01:15 | 36.08005 | -106.24810 | 42995 ft | 430 kts | 289° |
| 2026-04-30 01:15 | 36.10464 | -106.31534 | 42986 ft | 431 kts | 289° |
| 2026-04-30 01:16 | 36.13403 | -106.38082 | 42958 ft | 443 kts | 298° |
| 2026-04-30 01:16 | 36.17064 | -106.44234 | 42939 ft | 444 kts | 299° |
| 2026-04-30 01:17 | 36.20669 | -106.50348 | 42945 ft | 443 kts | 299° |
| 2026-04-30 01:17 | 36.24319 | -106.56493 | 42943 ft | 443 kts | 299° |
| 2026-04-30 01:18 | 36.27954 | -106.62658 | 42958 ft | 443 kts | 299° |
| 2026-04-30 01:18 | 36.31599 | -106.68836 | 42971 ft | 446 kts | 299° |
| 2026-04-30 01:19 | 36.35260 | -106.75051 | 42952 ft | 446 kts | 299° |
| 2026-04-30 01:19 | 36.38888 | -106.81227 | 42967 ft | 446 kts | 299° |
| 2026-04-30 01:20 | 36.42540 | -106.87457 | 42966 ft | 446 kts | 299° |
| 2026-04-30 01:20 | 36.46198 | -106.93699 | 42951 ft | 447 kts | 299° |
| 2026-04-30 01:21 | 36.49791 | -106.99851 | 42960 ft | 449 kts | 299° |
| 2026-04-30 01:21 | 36.53462 | -107.06141 | 42948 ft | 448 kts | 298° |
| 2026-04-30 01:22 | 36.57124 | -107.12434 | 42959 ft | 449 kts | 298° |
| 2026-04-30 01:22 | 36.60768 | -107.18701 | 42961 ft | 449 kts | 298° |
| 2026-04-30 01:23 | 36.64427 | -107.25009 | 42950 ft | 449 kts | 298° |
| 2026-04-30 01:23 | 36.68080 | -107.31322 | 42996 ft | 450 kts | 298° |
| 2026-04-30 01:24 | 36.69899 | -107.34469 | 42943 ft | 438 kts | 298° |
| 2026-04-30 01:24 | 36.71638 | -107.37445 | 42922 ft | 412 kts | 298° |
| 2026-04-30 01:24 | 36.73266 | -107.40253 | 42770 ft | 389 kts | 297° |
| 2026-04-30 01:24 | 36.74799 | -107.42937 | 41961 ft | 383 kts | 297° |
| 2026-04-30 01:25 | 36.76332 | -107.45626 | 41054 ft | 379 kts | 296° |
| 2026-04-30 01:25 | 36.77865 | -107.48277 | 40218 ft | 374 kts | 296° |
| 2026-04-30 01:25 | 36.79374 | -107.50884 | 39320 ft | 369 kts | 295° |
| 2026-04-30 01:25 | 36.80859 | -107.53468 | 38476 ft | 363 kts | 294° |
| 2026-04-30 01:26 | 36.82314 | -107.56007 | 37368 ft | 358 kts | 294° |
| 2026-04-30 01:26 | 36.83772 | -107.58567 | 36332 ft | 371 kts | 294° |
| 2026-04-30 01:26 | 36.85304 | -107.61273 | 35977 ft | 386 kts | 295° |
| 2026-04-30 01:26 | 36.86891 | -107.64000 | 36013 ft | 391 kts | 295° |
| 2026-04-30 01:27 | 36.90073 | -107.69547 | 36019 ft | 394 kts | 295° |
| 2026-04-30 01:27 | 36.93260 | -107.75135 | 36013 ft | 396 kts | 295° |
| 2026-04-30 01:28 | 36.96439 | -107.80696 | 36030 ft | 395 kts | 295° |
| 2026-04-30 01:28 | 36.99642 | -107.86319 | 35970 ft | 395 kts | 295° |
| 2026-04-30 01:29 | 37.02839 | -107.91958 | 35979 ft | 397 kts | 295° |
| 2026-04-30 01:29 | 37.06044 | -107.97584 | 35974 ft | 397 kts | 294° |
| 2026-04-30 01:30 | 37.09228 | -108.03211 | 35977 ft | 396 kts | 295° |
| 2026-04-30 01:30 | 37.12394 | -108.08805 | 35974 ft | 396 kts | 295° |
| 2026-04-30 01:31 | 37.15574 | -108.14434 | 35977 ft | 396 kts | 295° |
| 2026-04-30 01:31 | 37.18753 | -108.20072 | 35972 ft | 396 kts | 294° |
| 2026-04-30 01:32 | 37.21926 | -108.25710 | 35993 ft | 396 kts | 295° |
| 2026-04-30 01:32 | 37.25124 | -108.31394 | 35987 ft | 396 kts | 294° |
| 2026-04-30 01:33 | 37.26662 | -108.34094 | 35877 ft | 367 kts | 294° |
| 2026-04-30 01:33 | 37.28099 | -108.36643 | 34713 ft | 361 kts | 293° |
| 2026-04-30 01:33 | 37.29523 | -108.39249 | 33147 ft | 363 kts | 293° |
| 2026-04-30 01:33 | 37.30977 | -108.41887 | 30953 ft | 375 kts | 296° |
| 2026-04-30 01:34 | 37.32536 | -108.44664 | 28436 ft | 402 kts | 298° |
| 2026-04-30 01:34 | 37.34160 | -108.47509 | 27047 ft | 395 kts | 300° |
| 2026-04-30 01:34 | 37.35968 | -108.50095 | 25587 ft | 397 kts | 310° |
| 2026-04-30 01:34 | 37.38174 | -108.52203 | 24259 ft | 400 kts | 321° |
| 2026-04-30 01:35 | 37.40682 | -108.53744 | 22880 ft | 403 kts | 333° |
| 2026-04-30 01:35 | 37.43360 | -108.54637 | 21455 ft | 406 kts | 345° |
| 2026-04-30 01:35 | 37.46176 | -108.54852 | 20140 ft | 406 kts | 357° |
| 2026-04-30 01:35 | 37.48968 | -108.54453 | 18908 ft | 402 kts | 4° |
| 2026-04-30 01:36 | 37.51715 | -108.53957 | 17648 ft | 395 kts | 5° |
| 2026-04-30 01:36 | 37.54358 | -108.53505 | 16985 ft | 374 kts | 5° |
| 2026-04-30 01:36 | 37.56857 | -108.53075 | 16688 ft | 346 kts | 5° |
| 2026-04-30 01:36 | 37.59153 | -108.52672 | 16466 ft | 322 kts | 5° |
| 2026-04-30 01:37 | 37.61363 | -108.52288 | 16016 ft | 317 kts | 5° |
| 2026-04-30 01:37 | 37.63454 | -108.51925 | 16008 ft | 293 kts | 5° |
| 2026-04-30 01:37 | 37.65404 | -108.51584 | 15999 ft | 282 kts | 5° |
| 2026-04-30 01:37 | 37.67363 | -108.51246 | 16006 ft | 288 kts | 5° |
| 2026-04-30 01:38 | 37.69331 | -108.50904 | 15820 ft | 281 kts | 5° |
| 2026-04-30 01:38 | 37.71278 | -108.50563 | 15122 ft | 284 kts | 5° |
| 2026-04-30 01:38 | 37.73224 | -108.50222 | 14621 ft | 278 kts | 6° |
| 2026-04-30 01:38 | 37.75104 | -108.49893 | 13947 ft | 269 kts | 5° |
| 2026-04-30 01:39 | 37.76884 | -108.49579 | 13542 ft | 249 kts | 6° |
| 2026-04-30 01:39 | 37.78613 | -108.49280 | 12998 ft | 254 kts | 5° |
| 2026-04-30 01:39 | 37.80320 | -108.48983 | 13000 ft | 245 kts | 6° |
| 2026-04-30 01:39 | 37.82026 | -108.48684 | 13015 ft | 249 kts | 6° |
| 2026-04-30 01:40 | 37.83742 | -108.48383 | 13008 ft | 248 kts | 5° |
| 2026-04-30 01:40 | 37.85461 | -108.48082 | 13013 ft | 252 kts | 6° |
| 2026-04-30 01:40 | 37.87163 | -108.47783 | 13015 ft | 248 kts | 5° |
| 2026-04-30 01:40 | 37.88897 | -108.47480 | 13012 ft | 255 kts | 5° |
| 2026-04-30 01:41 | 37.90640 | -108.47173 | 13005 ft | 251 kts | 4° |
| 2026-04-30 01:41 | 37.92373 | -108.46870 | 13006 ft | 253 kts | 6° |
| 2026-04-30 01:41 | 37.94115 | -108.46563 | 12995 ft | 252 kts | 5° |
| 2026-04-30 01:41 | 37.95829 | -108.46159 | 12956 ft | 254 kts | 16° |
| 2026-04-30 01:42 | 37.97294 | -108.44900 | 12974 ft | 261 kts | 43° |
| 2026-04-30 01:42 | 37.98200 | -108.42974 | 13016 ft | 242 kts | 64° |
| 2026-04-30 01:42 | 37.98806 | -108.41134 | 12996 ft | 210 kts | 64° |
| 2026-04-30 01:42 | 37.99378 | -108.39460 | 13006 ft | 209 kts | 64° |
| 2026-04-30 01:43 | 37.99963 | -108.37781 | 13016 ft | 210 kts | 64° |
| 2026-04-30 01:43 | 38.00549 | -108.36065 | 13016 ft | 214 kts | 63° |
| 2026-04-30 01:43 | 38.01144 | -108.34317 | 13013 ft | 216 kts | 64° |
| 2026-04-30 01:43 | 38.01738 | -108.32572 | 13018 ft | 215 kts | 65° |
| 2026-04-30 01:44 | 38.02333 | -108.30828 | 13025 ft | 216 kts | 63° |
| 2026-04-30 01:44 | 38.02933 | -108.29070 | 13024 ft | 216 kts | 64° |
| 2026-04-30 01:44 | 38.03530 | -108.27318 | 13029 ft | 219 kts | 64° |
| 2026-04-30 01:44 | 38.04177 | -108.25427 | 13044 ft | 250 kts | 64° |
| 2026-04-30 01:45 | 38.04896 | -108.23321 | 13043 ft | 262 kts | 65° |
| 2026-04-30 01:45 | 38.05604 | -108.21230 | 13055 ft | 263 kts | 65° |
| 2026-04-30 01:45 | 38.06021 | -108.18970 | 12958 ft | 267 kts | 91° |
| 2026-04-30 01:45 | 38.05363 | -108.16797 | 12955 ft | 269 kts | 128° |
| 2026-04-30 01:46 | 38.03886 | -108.15446 | 13047 ft | 264 kts | 156° |
| 2026-04-30 01:46 | 38.02130 | -108.14758 | 13053 ft | 263 kts | 168° |
| 2026-04-30 01:46 | 38.00574 | -108.13539 | 12994 ft | 267 kts | 133° |
| 2026-04-30 01:46 | 37.99676 | -108.11427 | 12600 ft | 277 kts | 108° |
| 2026-04-30 01:47 | 37.99178 | -108.09099 | 12206 ft | 272 kts | 103° |
| 2026-04-30 01:47 | 37.98729 | -108.06783 | 11760 ft | 267 kts | 103° |
| 2026-04-30 01:47 | 37.98268 | -108.04562 | 11349 ft | 262 kts | 104° |
| 2026-04-30 01:47 | 37.97800 | -108.02369 | 10947 ft | 254 kts | 104° |
| 2026-04-30 01:48 | 37.97345 | -108.00212 | 10549 ft | 251 kts | 103° |
| 2026-04-30 01:48 | 37.96929 | -107.98247 | 10153 ft | 211 kts | 103° |
| 2026-04-30 01:48 | 37.96579 | -107.96593 | 9992 ft | 179 kts | 102° |
| 2026-04-30 01:48 | 37.96278 | -107.95147 | 9674 ft | 161 kts | 103° |
| 2026-04-30 01:49 | 37.96010 | -107.93840 | 9373 ft | 146 kts | 103° |
| 2026-04-30 01:49 | 37.95750 | -107.92631 | 9138 ft | 138 kts | 103° |
| 2026-04-30 01:49 | 37.95510 | -107.91489 | 9046 ft | 127 kts | 103° |
| 2026-04-30 01:49 | 37.95336 | -107.90650 | 9050 ft | 68 kts | 103° |
| 2026-04-30 01:50 | 37.95253 | -107.90257 | 9059 ft | 30 kts | 105° |
| 2026-04-30 01:50 | 37.95251 | -107.90144 | 9062 ft | 8 kts | 38° |
| 2026-04-30 01:50 | 37.95278 | -107.90132 | 9064 ft | 0 kts | 15° |
| 2026-04-30 01:50 | 37.95279 | -107.90131 | 9064 ft | 2 kts | 15° |
| 2026-04-30 01:51 | 37.95318 | -107.90118 | 9067 ft | 12 kts | 15° |
| 2026-04-30 01:51 | 37.95343 | -107.90155 | 9067 ft | 8 kts | 277° |
| 2026-04-30 01:51 | 37.95360 | -107.90237 | 9066 ft | 10 kts | 290° |
| 2026-04-30 01:51 | 37.95399 | -107.90257 | 9067 ft | 5 kts | 13° |
| 2026-04-30 01:52 | 37.95429 | -107.90247 | 9067 ft | 4 kts | 17° |
| 2026-04-30 01:52 | 37.95446 | -107.90241 | 9067 ft | 2 kts | 14° |
| 2026-04-30 01:52 | 37.95471 | -107.90233 | 9067 ft | 4 kts | 14° |
| 2026-04-30 01:52 | 37.95496 | -107.90224 | 9067 ft | 3 kts | 15° |
| 2026-04-30 01:53 | 37.95523 | -107.90218 | 9067 ft | 5 kts | 3° |
| 2026-04-30 01:53 | 37.95549 | -107.90211 | 9067 ft | 2 kts | 36° |
| 2026-04-30 01:53 | 37.95549 | -107.90196 | 9067 ft | 1 kts | 146° |
| 2026-04-30 01:53 | 37.95547 | -107.90197 | 9067 ft | 0 kts | 178° |